Time;durP1;ratioP1;P1;durP2;ratioP2;P2;SDS_P1;SDS_P2;PMS_P1;PMS_P2;Temp;Humidity;BMP_temperature;BMP_pressure;BME280_temperature;BME280_humidity;BME280_pressure;Samples;Min_cycle;Max_cycle;Signal;HPM_P1;HPM_P2
2021/12/24 00:01:52;;;;;;;4.67;3.10;;;;;;;;;;5071073;28;20224;-89
2021/12/24 00:04:21;;;;;;;6.07;3.73;;;;;;;;;;5071245;28;20724;-90
2021/12/24 00:06:49;;;;;;;4.60;3.37;;;;;;;;;;5058849;28;20647;-89
2021/12/24 00:09:21;;;;;;;3.20;2.77;;;;;;;;;;5070463;28;20315;-89
2021/12/24 00:11:48;;;;;;;4.77;3.20;;;;;;;;;;5071721;28;20221;-89
2021/12/24 00:14:16;;;;;;;5.10;3.37;;;;;;;;;;5068067;28;20209;-89
2021/12/24 00:16:48;;;;;;;3.03;2.77;;;;;;;;;;5068338;28;20638;-90
2021/12/24 00:19:22;;;;;;;6.10;2.77;;;;;;;;;;5068820;28;20214;-90
2021/12/24 00:22:26;;;;;;;5.73;2.80;;;;;;;;;;5068546;28;20240;-89
2021/12/24 00:36:06;;;;;;;3.30;2.57;;;;;;;;;;5064222;28;20294;-90
2021/12/24 00:38:33;;;;;;;6.37;2.63;;;;;;;;;;5073814;28;20601;-91
2021/12/24 00:41:00;;;;;;;3.50;2.53;;;;;;;;;;5064554;28;20716;-90
2021/12/24 00:43:28;;;;;;;4.47;2.80;;;;;;;;;;5073467;28;20287;-90
2021/12/24 00:46:03;;;;;;;3.57;2.20;;;;;;;;;;5074062;28;20221;-90
2021/12/24 00:48:30;;;;;;;5.83;2.73;;;;;;;;;;5060418;28;20302;-91
2021/12/24 00:51:19;;;;;;;5.27;2.90;;;;;;;;;;5066328;28;20574;-90
2021/12/24 00:56:32;;;;;;;7.33;2.90;;;;;;;;;;5069566;28;20389;-91
2021/12/24 00:59:01;;;;;;;4.27;3.13;;;;;;;;;;5062631;28;20284;-90
2021/12/24 01:01:28;;;;;;;6.97;3.40;;;;;;;;;;5071582;28;20255;-90
2021/12/24 01:03:55;;;;;;;3.70;3.20;;;;;;;;;;5073593;28;20258;-90
2021/12/24 01:06:23;;;;;;;8.07;3.10;;;;;;;;;;5067545;28;20225;-91
2021/12/24 01:08:52;;;;;;;5.57;3.30;;;;;;;;;;5071706;28;20209;-90
2021/12/24 01:11:20;;;;;;;4.60;3.13;;;;;;;;;;5068696;28;20647;-90
2021/12/24 01:13:47;;;;;;;4.67;3.60;;;;;;;;;;5053725;28;20202;-90
2021/12/24 01:16:22;;;;;;;4.23;3.00;;;;;;;;;;5059517;28;20220;-90
2021/12/24 01:18:57;;;;;;;5.53;3.03;;;;;;;;;;5072882;28;20276;-90
2021/12/24 01:21:39;;;;;;;4.50;2.67;;;;;;;;;;5061169;28;20658;-90
2021/12/24 01:24:13;;;;;;;3.57;3.03;;;;;;;;;;5066508;28;20771;-90
2021/12/24 01:26:47;;;;;;;4.37;3.20;;;;;;;;;;5069305;28;20225;-90
2021/12/24 01:38:09;;;;;;;3.73;3.07;;;;;;;;;;5058726;28;20202;-90
2021/12/24 01:40:51;;;;;;;5.47;3.20;;;;;;;;;;5070046;28;20197;-91
2021/12/24 01:43:18;;;;;;;5.83;3.40;;;;;;;;;;5059038;28;20294;-90
2021/12/24 01:45:47;;;;;;;5.40;3.23;;;;;;;;;;5069087;28;20229;-90
2021/12/24 01:48:15;;;;;;;3.53;2.83;;;;;;;;;;5056960;28;20815;-90
2021/12/24 01:50:43;;;;;;;3.73;2.87;;;;;;;;;;5053503;28;20201;-90
2021/12/24 01:53:11;;;;;;;4.50;2.63;;;;;;;;;;5083772;28;20217;-89
2021/12/24 01:55:40;;;;;;;2.63;2.40;;;;;;;;;;5089678;28;20527;-89
2021/12/24 01:58:07;;;;;;;3.57;2.57;;;;;;;;;;5063674;28;20214;-90
2021/12/24 02:00:37;;;;;;;3.43;2.50;;;;;;;;;;5055042;28;20205;-90
2021/12/24 02:03:04;;;;;;;6.87;3.00;;;;;;;;;;5071812;28;20571;-90
2021/12/24 02:05:32;;;;;;;3.50;2.63;;;;;;;;;;5072761;28;20212;-91
2021/12/24 02:07:59;;;;;;;3.30;2.87;;;;;;;;;;5061369;28;20289;-91
2021/12/24 02:10:27;;;;;;;4.03;2.90;;;;;;;;;;5065514;28;20263;-91
2021/12/24 02:12:56;;;;;;;4.87;3.03;;;;;;;;;;5069796;28;20225;-90
2021/12/24 02:15:31;;;;;;;4.07;2.67;;;;;;;;;;5072458;28;20213;-90
2021/12/24 02:18:22;;;;;;;3.63;2.57;;;;;;;;;;5062415;28;20209;-90
2021/12/24 02:29:22;;;;;;;4.10;2.60;;;;;;;;;;5034505;28;20284;-90
2021/12/24 02:31:49;;;;;;;4.60;2.57;;;;;;;;;;5071668;28;20221;-90
2021/12/24 02:34:16;;;;;;;3.87;2.37;;;;;;;;;;5072149;28;20555;-90
2021/12/24 02:36:45;;;;;;;3.27;2.70;;;;;;;;;;5064746;28;20262;-90
2021/12/24 02:39:12;;;;;;;4.57;2.47;;;;;;;;;;5064068;28;20205;-90
2021/12/24 02:41:39;;;;;;;3.17;2.53;;;;;;;;;;5072430;28;20629;-90
2021/12/24 02:44:07;;;;;;;3.00;1.97;;;;;;;;;;5070606;28;20269;-90
2021/12/24 02:46:41;;;;;;;2.47;2.27;;;;;;;;;;5066948;28;20274;-89
2021/12/24 02:49:13;;;;;;;3.57;2.60;;;;;;;;;;5071956;28;20198;-90
2021/12/24 02:54:27;;;;;;;3.67;3.00;;;;;;;;;;5067111;28;20746;-90
2021/12/24 02:56:59;;;;;;;2.90;2.10;;;;;;;;;;5070574;28;20205;-90
2021/12/24 02:59:28;;;;;;;5.70;2.07;;;;;;;;;;5072044;28;20209;-90
2021/12/24 03:01:56;;;;;;;3.60;2.80;;;;;;;;;;5068116;28;20256;-90
2021/12/24 03:04:24;;;;;;;4.17;3.20;;;;;;;;;;5066683;28;20729;-91
2021/12/24 03:06:53;;;;;;;3.87;2.53;;;;;;;;;;5071106;28;20217;-90
2021/12/24 03:09:21;;;;;;;4.67;2.53;;;;;;;;;;5059486;28;20206;-90
2021/12/24 03:11:51;;;;;;;3.23;2.30;;;;;;;;;;5053700;28;20225;-90
2021/12/24 03:14:20;;;;;;;4.23;2.40;;;;;;;;;;5054112;28;20248;-90
2021/12/24 03:16:52;;;;;;;2.47;2.20;;;;;;;;;;5060951;28;20274;-89
2021/12/24 03:19:24;;;;;;;3.07;2.43;;;;;;;;;;5065705;28;20205;-90
2021/12/24 03:21:56;;;;;;;3.67;2.33;;;;;;;;;;5064730;28;20230;-90
2021/12/24 03:24:35;;;;;;;3.77;2.60;;;;;;;;;;5065083;28;20234;-90
2021/12/24 03:27:05;;;;;;;3.90;2.00;;;;;;;;;;5060882;28;20836;-90
2021/12/24 03:29:32;;;;;;;2.60;1.87;;;;;;;;;;5071471;28;20198;-90
2021/12/24 03:32:00;;;;;;;2.87;2.17;;;;;;;;;;5071468;28;20909;-90
2021/12/24 03:34:27;;;;;;;2.20;1.83;;;;;;;;;;5067804;28;20205;-90
2021/12/24 03:36:55;;;;;;;2.93;2.23;;;;;;;;;;5058519;28;20202;-90
2021/12/24 03:39:22;;;;;;;2.60;2.40;;;;;;;;;;5075810;28;20201;-90
2021/12/24 03:41:49;;;;;;;2.60;2.17;;;;;;;;;;5059045;28;20230;-90
2021/12/24 03:44:19;;;;;;;4.63;2.23;;;;;;;;;;5068593;28;20209;-90
2021/12/24 03:46:55;;;;;;;3.03;1.93;;;;;;;;;;5067002;28;20331;-89
2021/12/24 03:49:33;;;;;;;2.90;2.30;;;;;;;;;;5055189;28;20300;-90
2021/12/24 03:52:14;;;;;;;3.47;2.57;;;;;;;;;;5068002;28;20225;-90
2021/12/24 03:54:57;;;;;;;3.93;2.30;;;;;;;;;;5074261;28;20662;-90
2021/12/24 03:57:24;;;;;;;3.97;2.50;;;;;;;;;;5066239;28;20284;-90
2021/12/24 03:59:53;;;;;;;2.90;2.17;;;;;;;;;;5058176;28;20243;-90
2021/12/24 04:02:21;;;;;;;2.63;2.20;;;;;;;;;;5070382;28;20225;-89
2021/12/24 04:04:48;;;;;;;2.53;2.20;;;;;;;;;;5074599;28;20205;-90
2021/12/24 04:07:16;;;;;;;3.27;2.47;;;;;;;;;;5070523;28;20221;-90
2021/12/24 04:09:51;;;;;;;3.10;2.20;;;;;;;;;;5067514;28;20601;-90
2021/12/24 04:12:19;;;;;;;3.10;2.30;;;;;;;;;;5069217;28;20565;-90
2021/12/24 04:14:46;;;;;;;3.40;2.50;;;;;;;;;;5075137;28;20205;-91
2021/12/24 04:17:15;;;;;;;2.50;2.30;;;;;;;;;;5064773;28;20236;-91
2021/12/24 04:25:27;;;;;;;4.67;2.50;;;;;;;;;;5000119;28;20239;-90
2021/12/24 04:27:57;;;;;;;4.17;2.70;;;;;;;;;;5038578;28;20224;-90
2021/12/24 04:30:28;;;;;;;2.70;2.50;;;;;;;;;;5074816;28;20212;-90
2021/12/24 04:33:01;;;;;;;3.20;2.70;;;;;;;;;;5074337;28;20286;-89
2021/12/24 04:35:40;;;;;;;6.60;2.90;;;;;;;;;;5067298;28;20233;-90
2021/12/24 04:51:54;;;;;;;3.23;2.53;;;;;;;;;;5066914;28;20228;-90
2021/12/24 05:02:52;;;;;;;3.40;2.50;;;;;;;;;;5061980;28;20229;-90
2021/12/24 05:05:24;;;;;;;2.47;2.03;;;;;;;;;;5069707;28;20205;-90
2021/12/24 05:10:45;;;;;;;2.93;2.40;;;;;;;;;;5069348;28;20220;-90
2021/12/24 05:13:14;;;;;;;4.10;2.60;;;;;;;;;;5067039;28;20283;-90
2021/12/24 05:15:44;;;;;;;3.40;2.70;;;;;;;;;;5065826;28;20230;-89
2021/12/24 05:18:28;;;;;;;3.77;2.87;;;;;;;;;;5058101;28;20198;-90
2021/12/24 05:23:42;;;;;;;3.13;2.30;;;;;;;;;;5072862;28;20204;-90
2021/12/24 05:26:09;;;;;;;3.03;2.30;;;;;;;;;;5062146;28;20217;-89
2021/12/24 05:28:38;;;;;;;2.97;2.13;;;;;;;;;;5071795;28;20224;-90
2021/12/24 05:31:06;;;;;;;3.70;2.27;;;;;;;;;;5073163;28;20318;-90
2021/12/24 05:33:33;;;;;;;3.50;2.40;;;;;;;;;;5069135;28;20221;-89
2021/12/24 05:36:02;;;;;;;2.57;2.00;;;;;;;;;;5072066;28;20262;-89
2021/12/24 05:38:30;;;;;;;2.83;2.20;;;;;;;;;;5072671;28;20229;-90
2021/12/24 05:40:57;;;;;;;3.07;2.07;;;;;;;;;;5062304;28;20209;-90
2021/12/24 05:43:25;;;;;;;2.20;2.00;;;;;;;;;;5060623;28;20252;-89
2021/12/24 05:45:52;;;;;;;3.73;1.83;;;;;;;;;;5071926;28;20205;-90
2021/12/24 05:48:19;;;;;;;6.03;2.40;;;;;;;;;;5072504;28;20225;-90
2021/12/24 05:50:47;;;;;;;2.57;2.30;;;;;;;;;;5072991;28;20197;-89
2021/12/24 05:53:15;;;;;;;2.80;2.00;;;;;;;;;;5062660;28;20229;-90
2021/12/24 05:55:43;;;;;;;2.70;2.43;;;;;;;;;;5071652;28;20225;-89
2021/12/24 05:58:10;;;;;;;2.67;2.40;;;;;;;;;;5072838;28;20218;-89
2021/12/24 06:00:39;;;;;;;2.67;2.30;;;;;;;;;;5070672;28;20275;-90
2021/12/24 06:03:06;;;;;;;2.70;2.23;;;;;;;;;;5060419;28;20226;-90
2021/12/24 06:05:33;;;;;;;2.47;1.70;;;;;;;;;;5072189;28;20200;-89
2021/12/24 06:08:01;;;;;;;2.47;2.27;;;;;;;;;;5072420;28;20245;-90
2021/12/24 06:10:30;;;;;;;3.10;2.00;;;;;;;;;;5071350;28;20201;-89
2021/12/24 06:12:57;;;;;;;2.03;1.87;;;;;;;;;;5065068;28;20847;-89
2021/12/24 06:15:26;;;;;;;3.00;2.00;;;;;;;;;;5069921;28;20205;-89
2021/12/24 06:17:55;;;;;;;2.47;2.10;;;;;;;;;;5072403;28;20627;-90
2021/12/24 06:20:23;;;;;;;2.97;2.10;;;;;;;;;;5068797;28;20205;-89
2021/12/24 06:22:51;;;;;;;2.93;2.40;;;;;;;;;;5065393;28;20221;-90
2021/12/24 06:25:18;;;;;;;5.13;2.30;;;;;;;;;;5077315;28;20274;-90
2021/12/24 06:27:48;;;;;;;2.90;2.30;;;;;;;;;;5062185;28;20226;-90
2021/12/24 06:30:16;;;;;;;2.73;2.30;;;;;;;;;;5065715;28;20224;-91
2021/12/24 06:32:44;;;;;;;2.60;2.40;;;;;;;;;;5071522;28;20225;-90
2021/12/24 06:35:11;;;;;;;2.87;1.93;;;;;;;;;;5070674;28;20201;-90
2021/12/24 06:37:39;;;;;;;2.83;2.00;;;;;;;;;;5059740;28;20194;-91
2021/12/24 06:40:07;;;;;;;2.80;2.20;;;;;;;;;;5070895;28;20255;-89
2021/12/24 06:42:34;;;;;;;2.53;2.10;;;;;;;;;;5071580;28;20686;-90
2021/12/24 06:45:03;;;;;;;3.30;2.30;;;;;;;;;;5054139;28;20615;-90
2021/12/24 06:47:30;;;;;;;3.33;2.30;;;;;;;;;;5073141;28;20282;-90
2021/12/24 06:49:58;;;;;;;3.50;2.10;;;;;;;;;;5071543;28;20254;-90
2021/12/24 06:52:25;;;;;;;4.03;2.17;;;;;;;;;;5072154;28;20220;-90
2021/12/24 06:54:52;;;;;;;2.50;2.30;;;;;;;;;;5072673;28;20223;-89
2021/12/24 06:57:20;;;;;;;3.13;2.20;;;;;;;;;;5071679;28;20592;-91
2021/12/24 06:59:48;;;;;;;2.13;1.93;;;;;;;;;;5072104;28;20197;-90
2021/12/24 07:02:16;;;;;;;2.60;1.80;;;;;;;;;;5059623;28;20928;-90
2021/12/24 07:04:44;;;;;;;2.30;2.10;;;;;;;;;;5068701;28;20205;-90
2021/12/24 07:07:11;;;;;;;2.10;1.83;;;;;;;;;;5071411;28;20196;-91
2021/12/24 07:09:42;;;;;;;1.90;1.77;;;;;;;;;;5072336;28;20764;-90
2021/12/24 07:12:11;;;;;;;2.20;1.80;;;;;;;;;;5065469;28;20217;-89
2021/12/24 07:14:38;;;;;;;2.60;1.80;;;;;;;;;;5070913;28;20666;-91
2021/12/24 07:17:06;;;;;;;3.73;2.33;;;;;;;;;;5074758;28;20263;-90
2021/12/24 07:19:34;;;;;;;1.93;1.83;;;;;;;;;;5071719;28;20267;-90
2021/12/24 07:22:02;;;;;;;2.37;2.17;;;;;;;;;;5062940;28;20237;-90
2021/12/24 07:24:29;;;;;;;2.97;2.40;;;;;;;;;;5065922;28;20210;-91
2021/12/24 07:26:57;;;;;;;3.20;2.10;;;;;;;;;;5071231;28;20257;-91
2021/12/24 07:29:24;;;;;;;3.83;2.90;;;;;;;;;;5068814;28;20217;-91
2021/12/24 07:31:51;;;;;;;3.13;2.40;;;;;;;;;;5070980;28;20234;-91
2021/12/24 07:34:35;;;;;;;2.40;2.20;;;;;;;;;;5070315;28;20555;-91
2021/12/24 07:37:03;;;;;;;2.97;2.20;;;;;;;;;;5074408;28;20259;-90
2021/12/24 07:39:30;;;;;;;2.30;1.90;;;;;;;;;;5071684;28;20209;-91
2021/12/24 07:41:57;;;;;;;5.23;2.30;;;;;;;;;;5072316;28;20290;-91
2021/12/24 07:44:26;;;;;;;3.20;2.00;;;;;;;;;;5067681;28;20205;-90
2021/12/24 07:46:57;;;;;;;3.07;2.40;;;;;;;;;;5074292;28;20236;-91
2021/12/24 07:49:33;;;;;;;5.57;2.53;;;;;;;;;;5068265;28;20217;-91
2021/12/24 07:52:08;;;;;;;2.30;2.10;;;;;;;;;;5067108;28;20248;-90
2021/12/24 07:54:36;;;;;;;4.07;2.43;;;;;;;;;;5075085;28;20205;-91
2021/12/24 07:57:04;;;;;;;3.07;2.37;;;;;;;;;;5068323;28;20260;-91
2021/12/24 07:59:35;;;;;;;6.10;2.40;;;;;;;;;;5074720;28;20612;-91
2021/12/24 08:02:02;;;;;;;2.93;2.60;;;;;;;;;;5072249;28;20249;-91
2021/12/24 08:04:29;;;;;;;5.00;2.20;;;;;;;;;;5061446;28;20205;-91
2021/12/24 08:06:56;;;;;;;3.13;2.17;;;;;;;;;;5067900;28;20206;-90
2021/12/24 08:09:25;;;;;;;2.90;2.40;;;;;;;;;;5074832;28;20563;-90
2021/12/24 08:11:52;;;;;;;3.87;2.30;;;;;;;;;;5074546;28;20229;-91
2021/12/24 08:14:20;;;;;;;4.23;2.07;;;;;;;;;;5066949;28;20547;-91
2021/12/24 08:16:47;;;;;;;2.87;2.27;;;;;;;;;;5066028;28;20258;-89
2021/12/24 08:19:17;;;;;;;3.03;2.10;;;;;;;;;;5074456;28;20197;-90
2021/12/24 08:21:45;;;;;;;2.20;2.00;;;;;;;;;;5072010;28;20240;-91
2021/12/24 08:24:41;;;;;;;3.43;2.43;;;;;;;;;;5072911;28;20217;-91
2021/12/24 08:27:36;;;;;;;2.70;2.33;;;;;;;;;;5073266;28;20239;-91
2021/12/24 08:30:16;;;;;;;2.40;2.20;;;;;;;;;;5069669;28;20213;-91
2021/12/24 08:32:45;;;;;;;2.77;2.37;;;;;;;;;;5068436;28;20237;-90
2021/12/24 08:35:13;;;;;;;4.50;2.70;;;;;;;;;;5074083;28;20250;-91
2021/12/24 08:37:41;;;;;;;2.37;2.03;;;;;;;;;;5074191;28;20236;-91
2021/12/24 08:40:08;;;;;;;2.30;1.87;;;;;;;;;;5068483;28;20283;-91
2021/12/24 08:42:36;;;;;;;2.73;2.47;;;;;;;;;;5074035;28;20237;-90
2021/12/24 08:45:04;;;;;;;4.67;2.57;;;;;;;;;;5074399;28;20553;-91
2021/12/24 08:47:33;;;;;;;3.43;2.20;;;;;;;;;;5071718;28;20209;-91
2021/12/24 08:50:00;;;;;;;2.60;2.40;;;;;;;;;;5068743;28;20280;-91
2021/12/24 08:52:27;;;;;;;4.73;2.50;;;;;;;;;;5073137;28;20311;-90
2021/12/24 08:54:55;;;;;;;2.87;2.20;;;;;;;;;;5073578;28;20617;-90
2021/12/24 08:57:22;;;;;;;3.90;2.53;;;;;;;;;;5071337;28;20307;-90
2021/12/24 08:59:49;;;;;;;3.20;2.70;;;;;;;;;;5070924;28;20205;-91
2021/12/24 09:02:16;;;;;;;2.77;2.53;;;;;;;;;;5074014;28;20229;-91
2021/12/24 09:04:45;;;;;;;3.60;2.40;;;;;;;;;;5071994;28;20251;-91
2021/12/24 09:07:13;;;;;;;3.00;2.63;;;;;;;;;;5061542;28;20230;-91
2021/12/24 09:09:40;;;;;;;2.40;2.10;;;;;;;;;;5072613;28;20217;-91
2021/12/24 09:12:08;;;;;;;4.33;2.43;;;;;;;;;;5073873;28;20637;-91
2021/12/24 09:14:35;;;;;;;3.67;2.50;;;;;;;;;;5063435;28;20811;-91
2021/12/24 09:17:03;;;;;;;3.23;2.63;;;;;;;;;;5065136;28;20797;-91
2021/12/24 09:19:31;;;;;;;2.80;2.40;;;;;;;;;;5073860;28;20739;-90
2021/12/24 09:22:01;;;;;;;3.13;2.43;;;;;;;;;;5068172;28;20264;-90
2021/12/24 09:24:30;;;;;;;3.23;2.70;;;;;;;;;;5073178;28;20260;-91
2021/12/24 09:26:57;;;;;;;2.63;2.30;;;;;;;;;;5072990;28;20615;-90
2021/12/24 09:29:25;;;;;;;3.63;2.70;;;;;;;;;;5064368;28;20218;-91
2021/12/24 09:31:52;;;;;;;3.37;2.30;;;;;;;;;;5065883;28;20236;-91
2021/12/24 09:34:19;;;;;;;4.00;2.13;;;;;;;;;;5072487;28;20251;-91
2021/12/24 09:36:47;;;;;;;2.43;2.23;;;;;;;;;;5072214;28;20202;-91
2021/12/24 09:39:15;;;;;;;2.87;2.33;;;;;;;;;;5070052;28;20197;-91
2021/12/24 09:41:43;;;;;;;2.50;2.27;;;;;;;;;;5070719;28;20225;-91
2021/12/24 09:44:10;;;;;;;3.30;2.50;;;;;;;;;;5070644;28;20193;-91
2021/12/24 09:46:42;;;;;;;2.43;2.23;;;;;;;;;;5070816;28;20197;-90
2021/12/24 09:49:09;;;;;;;3.00;2.50;;;;;;;;;;5065839;28;20233;-91
2021/12/24 09:51:38;;;;;;;3.17;2.30;;;;;;;;;;5072836;28;20208;-90
2021/12/24 09:54:10;;;;;;;6.10;2.93;;;;;;;;;;5072138;28;20197;-91
2021/12/24 09:56:39;;;;;;;2.90;2.70;;;;;;;;;;5072928;28;20908;-91
2021/12/24 09:59:06;;;;;;;5.10;2.30;;;;;;;;;;5060017;28;20614;-91
2021/12/24 10:01:34;;;;;;;3.77;2.57;;;;;;;;;;5063811;28;20245;-91
2021/12/24 10:04:03;;;;;;;5.30;2.53;;;;;;;;;;5070940;28;20210;-91
2021/12/24 10:06:50;;;;;;;5.10;2.97;;;;;;;;;;5072262;28;20201;-91
2021/12/24 10:09:18;;;;;;;4.70;3.00;;;;;;;;;;5069487;28;20278;-91
2021/12/24 10:11:49;;;;;;;3.67;2.97;;;;;;;;;;5055181;28;20236;-91
2021/12/24 10:14:18;;;;;;;2.93;2.63;;;;;;;;;;5069991;28;20213;-91
2021/12/24 10:16:46;;;;;;;4.27;3.00;;;;;;;;;;5068322;28;20205;-91
2021/12/24 10:19:14;;;;;;;4.43;2.83;;;;;;;;;;5072713;28;20232;-91
2021/12/24 10:21:42;;;;;;;3.93;3.03;;;;;;;;;;5064159;28;20225;-92
2021/12/24 10:24:14;;;;;;;3.27;2.93;;;;;;;;;;5071808;28;20242;-91
2021/12/24 10:26:44;;;;;;;4.30;3.00;;;;;;;;;;5072126;28;20209;-92
2021/12/24 10:29:15;;;;;;;5.77;3.17;;;;;;;;;;5067327;28;21700;-92
2021/12/24 10:31:44;;;;;;;4.43;3.07;;;;;;;;;;5063672;28;20312;-91
2021/12/24 10:34:12;;;;;;;4.53;2.60;;;;;;;;;;5067840;28;20221;-92
2021/12/24 10:36:55;;;;;;;4.23;3.20;;;;;;;;;;5060619;28;20259;-91
2021/12/24 10:39:23;;;;;;;6.37;3.33;;;;;;;;;;5063520;28;20294;-92
2021/12/24 10:41:52;;;;;;;6.17;3.47;;;;;;;;;;5069956;28;20225;-90
2021/12/24 10:44:22;;;;;;;6.60;5.43;;;;;;;;;;5070013;28;20205;-92
2021/12/24 10:46:59;;;;;;;9.03;4.67;;;;;;;;;;5061483;28;20202;-92
2021/12/24 10:49:48;;;;;;;5.90;3.37;;;;;;;;;;5068356;28;20895;-92
2021/12/24 10:52:29;;;;;;;4.83;3.23;;;;;;;;;;5055347;28;20225;-92
2021/12/24 10:54:58;;;;;;;6.47;3.67;;;;;;;;;;5064603;28;20205;-92
2021/12/24 10:57:26;;;;;;;6.60;3.63;;;;;;;;;;5066870;28;20695;-92
2021/12/24 10:59:58;;;;;;;4.93;3.90;;;;;;;;;;5066468;28;20646;-92
2021/12/24 11:02:29;;;;;;;3.53;3.20;;;;;;;;;;5061105;28;20213;-92
2021/12/24 11:04:59;;;;;;;4.40;3.07;;;;;;;;;;5066671;28;20208;-91
2021/12/24 11:07:34;;;;;;;6.47;3.50;;;;;;;;;;5062631;28;20198;-92
2021/12/24 11:10:13;;;;;;;6.93;3.57;;;;;;;;;;5064583;28;20212;-92
2021/12/24 11:12:43;;;;;;;3.67;2.77;;;;;;;;;;5063386;28;20285;-92
2021/12/24 11:15:25;;;;;;;3.83;2.97;;;;;;;;;;5068668;28;20837;-92
2021/12/24 11:17:54;;;;;;;5.77;3.10;;;;;;;;;;5048262;28;20827;-92
2021/12/24 11:20:21;;;;;;;4.73;3.17;;;;;;;;;;5051894;28;20214;-91
2021/12/24 11:22:53;;;;;;;3.70;3.03;;;;;;;;;;5061535;28;20257;-91
2021/12/24 11:25:21;;;;;;;4.53;2.97;;;;;;;;;;5060518;28;20606;-92
2021/12/24 11:27:48;;;;;;;4.70;2.73;;;;;;;;;;5068024;28;20593;-92
2021/12/24 11:30:19;;;;;;;4.27;3.03;;;;;;;;;;5064129;28;20217;-92
2021/12/24 11:32:48;;;;;;;8.20;2.83;;;;;;;;;;5065199;28;20217;-92
2021/12/24 11:35:15;;;;;;;3.37;3.03;;;;;;;;;;5061726;28;21016;-92
2021/12/24 11:37:48;;;;;;;3.50;2.63;;;;;;;;;;5058384;28;20213;-93
2021/12/24 11:40:20;;;;;;;3.37;2.83;;;;;;;;;;5067458;28;20602;-92
2021/12/24 11:42:50;;;;;;;4.70;3.27;;;;;;;;;;5065457;28;20225;-90
2021/12/24 11:45:18;;;;;;;5.47;3.60;;;;;;;;;;5062281;28;20572;-91
2021/12/24 11:47:46;;;;;;;3.73;3.10;;;;;;;;;;5063395;28;20212;-90
2021/12/24 11:50:16;;;;;;;3.50;3.20;;;;;;;;;;5055232;28;20221;-91
2021/12/24 11:52:43;;;;;;;5.40;3.80;;;;;;;;;;5067899;28;20939;-91
2021/12/24 11:55:11;;;;;;;7.83;3.30;;;;;;;;;;5065134;28;20433;-93
2021/12/24 11:57:50;;;;;;;4.90;3.07;;;;;;;;;;5060843;28;20744;-92
2021/12/24 12:00:21;;;;;;;6.37;3.37;;;;;;;;;;5070701;28;20205;-92
2021/12/24 12:02:50;;;;;;;4.60;3.60;;;;;;;;;;5071446;28;20221;-92
2021/12/24 12:05:22;;;;;;;5.80;3.60;;;;;;;;;;5072501;28;20205;-91
2021/12/24 12:07:50;;;;;;;4.60;3.57;;;;;;;;;;5063191;28;20290;-92
2021/12/24 12:10:32;;;;;;;4.40;3.63;;;;;;;;;;5070813;28;20290;-91
2021/12/24 12:13:00;;;;;;;7.77;3.60;;;;;;;;;;5070440;28;20225;-92
2021/12/24 12:15:28;;;;;;;4.30;3.30;;;;;;;;;;5068615;28;20205;-93
2021/12/24 12:17:58;;;;;;;5.50;3.27;;;;;;;;;;5074689;28;20201;-91
2021/12/24 12:20:46;;;;;;;3.63;3.10;;;;;;;;;;5067594;28;20197;-92
2021/12/24 12:23:28;;;;;;;4.93;3.33;;;;;;;;;;5064610;28;20224;-91
2021/12/24 12:25:56;;;;;;;3.53;2.83;;;;;;;;;;5066051;28;20213;-93
2021/12/24 12:28:26;;;;;;;3.70;3.27;;;;;;;;;;5071974;28;20201;-91
2021/12/24 12:30:55;;;;;;;3.20;2.90;;;;;;;;;;5071927;28;20217;-92
2021/12/24 12:33:34;;;;;;;6.00;2.80;;;;;;;;;;5064931;28;20304;-92
2021/12/24 12:36:04;;;;;;;3.13;2.83;;;;;;;;;;5067981;28;20615;-92
2021/12/24 12:38:33;;;;;;;2.93;2.50;;;;;;;;;;5069350;28;20201;-93
2021/12/24 12:41:31;;;;;;;5.63;3.13;;;;;;;;;;5066688;28;20197;-91
2021/12/24 12:43:59;;;;;;;7.77;3.10;;;;;;;;;;5016555;28;20674;-92
2021/12/24 12:46:31;;;;;;;5.33;3.00;;;;;;;;;;5068833;28;20197;-92
2021/12/24 12:49:00;;;;;;;5.10;2.80;;;;;;;;;;5071499;28;20217;-91
2021/12/24 12:51:45;;;;;;;3.63;2.87;;;;;;;;;;5067350;28;20555;-92
2021/12/24 12:54:27;;;;;;;5.80;3.27;;;;;;;;;;5059190;28;20228;-92
2021/12/24 12:57:09;;;;;;;6.57;2.80;;;;;;;;;;5061569;28;20236;-92
2021/12/24 12:59:40;;;;;;;3.67;2.73;;;;;;;;;;5069565;28;20598;-92
2021/12/24 13:02:08;;;;;;;5.07;3.13;;;;;;;;;;5056765;28;20278;-92
2021/12/24 13:04:35;;;;;;;4.77;3.07;;;;;;;;;;5066013;28;20250;-91
2021/12/24 13:07:02;;;;;;;5.63;3.13;;;;;;;;;;5068710;28;20263;-93
2021/12/24 13:09:33;;;;;;;8.57;3.50;;;;;;;;;;5060854;28;20226;-92
2021/12/24 13:12:01;;;;;;;3.60;2.77;;;;;;;;;;5066381;28;20320;-92
2021/12/24 13:14:30;;;;;;;7.80;3.90;;;;;;;;;;5066002;28;20204;-92
2021/12/24 13:17:18;;;;;;;8.70;3.60;;;;;;;;;;5070416;28;20376;-91
2021/12/24 13:22:29;;;;;;;2.87;2.60;;;;;;;;;;5062808;28;20220;-90
2021/12/24 13:24:59;;;;;;;7.27;3.10;;;;;;;;;;5067733;28;20252;-92
2021/12/24 13:27:27;;;;;;;4.53;3.77;;;;;;;;;;5059247;28;20213;-92
2021/12/24 13:30:06;;;;;;;6.40;4.20;;;;;;;;;;5062504;28;20218;-92
2021/12/24 13:32:38;;;;;;;9.43;3.40;;;;;;;;;;5069773;28;20976;-91
2021/12/24 13:35:05;;;;;;;8.47;5.87;;;;;;;;;;5070247;28;20201;-91
2021/12/24 13:37:34;;;;;;;10.80;6.20;;;;;;;;;;5064106;28;20344;-92
2021/12/24 13:40:01;;;;;;;9.87;7.97;;;;;;;;;;5068059;28;20798;-92
2021/12/24 13:42:29;;;;;;;9.10;4.70;;;;;;;;;;5069706;28;20214;-92
2021/12/24 13:45:00;;;;;;;12.03;3.97;;;;;;;;;;5067751;28;20842;-92
2021/12/24 13:47:39;;;;;;;7.87;3.67;;;;;;;;;;5062402;28;20197;-92
2021/12/24 13:50:26;;;;;;;8.83;3.40;;;;;;;;;;5070609;28;20580;-93
2021/12/24 13:55:43;;;;;;;11.20;3.83;;;;;;;;;;5054742;28;20213;-92
2021/12/24 13:58:11;;;;;;;5.20;3.43;;;;;;;;;;5068108;28;20842;-91
2021/12/24 14:00:40;;;;;;;6.13;3.63;;;;;;;;;;5070401;28;20197;-92
2021/12/24 14:03:09;;;;;;;6.53;3.57;;;;;;;;;;5069440;28;20635;-93
2021/12/24 14:05:46;;;;;;;3.73;2.97;;;;;;;;;;5065198;28;20209;-92
2021/12/24 14:08:45;;;;;;;3.73;3.20;;;;;;;;;;5069091;28;20203;-92
2021/12/24 14:11:14;;;;;;;3.57;3.27;;;;;;;;;;5057056;28;20222;-90
2021/12/24 14:13:45;;;;;;;8.10;3.97;;;;;;;;;;5055974;28;21088;-92
2021/12/24 14:16:29;;;;;;;5.57;3.83;;;;;;;;;;5062759;28;20805;-92
2021/12/24 14:19:09;;;;;;;5.00;4.07;;;;;;;;;;5069981;28;20567;-92
2021/12/24 14:21:48;;;;;;;4.37;3.23;;;;;;;;;;5068990;28;20209;-91
2021/12/24 14:24:22;;;;;;;5.40;2.47;;;;;;;;;;5063767;28;20204;-92
2021/12/24 14:26:52;;;;;;;6.67;2.47;;;;;;;;;;5065963;28;20213;-92
2021/12/24 14:29:25;;;;;;;3.37;2.50;;;;;;;;;;5064060;28;20263;-92
2021/12/24 14:31:53;;;;;;;4.87;2.70;;;;;;;;;;5063309;28;20224;-92
2021/12/24 14:34:34;;;;;;;3.00;2.60;;;;;;;;;;5067745;28;20205;-90
2021/12/24 14:37:05;;;;;;;8.33;3.10;;;;;;;;;;5068911;28;20223;-92
2021/12/24 14:39:36;;;;;;;9.10;3.90;;;;;;;;;;5054713;28;20201;-91
2021/12/24 14:42:10;;;;;;;7.90;3.50;;;;;;;;;;5062204;28;20314;-93
2021/12/24 14:44:37;;;;;;;4.80;3.33;;;;;;;;;;5069721;28;20201;-92
2021/12/24 14:47:05;;;;;;;4.17;3.10;;;;;;;;;;5068723;28;20205;-93
2021/12/24 14:49:33;;;;;;;8.50;3.07;;;;;;;;;;5059780;28;20202;-90
2021/12/24 14:55:09;;;;;;;6.30;3.47;;;;;;;;;;5107298;27;20606;-91
2021/12/24 14:57:44;;;;;;;3.53;3.17;;;;;;;;;;5094901;28;20826;-90
2021/12/24 15:00:13;;;;;;;3.87;3.27;;;;;;;;;;5096017;28;20659;-90
2021/12/24 15:02:41;;;;;;;3.07;2.73;;;;;;;;;;5109378;27;20223;-90
2021/12/24 15:05:08;;;;;;;7.80;3.03;;;;;;;;;;5086929;28;20287;-90
2021/12/24 15:07:46;;;;;;;3.70;2.70;;;;;;;;;;5092632;28;20204;-91
2021/12/24 15:10:30;;;;;;;4.17;2.53;;;;;;;;;;5088897;28;20208;-90
2021/12/24 15:13:08;;;;;;;3.60;2.77;;;;;;;;;;5080980;28;20277;-91
2021/12/24 15:15:36;;;;;;;3.63;2.50;;;;;;;;;;5080097;28;20224;-91
2021/12/24 15:18:04;;;;;;;2.93;2.40;;;;;;;;;;5080738;28;20776;-90
2021/12/24 15:20:31;;;;;;;5.53;2.80;;;;;;;;;;5083801;28;20201;-90
2021/12/24 15:22:58;;;;;;;4.90;2.80;;;;;;;;;;5087967;28;20221;-90
2021/12/24 15:25:26;;;;;;;3.87;2.60;;;;;;;;;;5084756;28;20201;-89
2021/12/24 15:27:55;;;;;;;4.90;2.57;;;;;;;;;;5092889;28;20204;-90
2021/12/24 15:30:23;;;;;;;10.57;2.73;;;;;;;;;;5096320;28;20826;-90
2021/12/24 15:32:50;;;;;;;2.57;2.37;;;;;;;;;;5086348;28;20274;-90
2021/12/24 15:35:17;;;;;;;2.80;2.60;;;;;;;;;;5093752;28;20208;-90
2021/12/24 15:37:45;;;;;;;4.47;2.90;;;;;;;;;;5083836;28;20445;-89
2021/12/24 15:40:12;;;;;;;7.07;3.97;;;;;;;;;;5086142;28;20334;-91
2021/12/24 15:42:40;;;;;;;5.73;4.40;;;;;;;;;;5086085;28;20268;-89
2021/12/24 15:45:08;;;;;;;9.63;5.17;;;;;;;;;;5086188;28;20292;-90
2021/12/24 15:47:36;;;;;;;8.43;5.53;;;;;;;;;;5078222;28;20201;-90
2021/12/24 15:50:03;;;;;;;9.03;5.53;;;;;;;;;;5085465;28;20818;-90
2021/12/24 15:52:30;;;;;;;7.33;4.10;;;;;;;;;;5084693;28;20209;-89
2021/12/24 15:55:03;;;;;;;3.43;3.10;;;;;;;;;;5087619;28;20225;-91
2021/12/24 15:57:31;;;;;;;4.27;3.43;;;;;;;;;;5087735;28;20181;-90
2021/12/24 15:59:58;;;;;;;4.10;3.30;;;;;;;;;;5087991;28;20583;-90
2021/12/24 16:02:27;;;;;;;3.50;3.13;;;;;;;;;;5088369;28;20277;-89
2021/12/24 16:04:54;;;;;;;5.33;3.40;;;;;;;;;;5090261;28;20834;-90
2021/12/24 16:07:21;;;;;;;4.07;3.30;;;;;;;;;;5074473;28;20212;-91
2021/12/24 16:09:49;;;;;;;6.13;3.77;;;;;;;;;;5067706;28;20301;-89
2021/12/24 16:12:16;;;;;;;5.87;3.87;;;;;;;;;;5067363;28;20252;-91
2021/12/24 16:14:44;;;;;;;6.63;3.60;;;;;;;;;;5083734;28;20224;-91
2021/12/24 16:17:12;;;;;;;6.43;4.40;;;;;;;;;;5071951;28;20620;-90
2021/12/24 16:19:40;;;;;;;5.33;4.63;;;;;;;;;;5067206;28;20202;-91